sensor_id;sensor_type;location;lat;lon;timestamp;temperature;humidity
9949;DHT22;5013;51.840;8.276;2022-10-16T00:00:39;13.80;99.90
9949;DHT22;5013;51.840;8.276;2022-10-16T00:03:05;13.90;99.90
9949;DHT22;5013;51.840;8.276;2022-10-16T00:05:31;13.80;99.90
9949;DHT22;5013;51.840;8.276;2022-10-16T00:07:57;13.80;99.90
9949;DHT22;5013;51.840;8.276;2022-10-16T00:10:23;13.70;95.30
9949;DHT22;5013;51.840;8.276;2022-10-16T00:12:48;13.80;99.90
9949;DHT22;5013;51.840;8.276;2022-10-16T00:15:14;13.70;94.00
9949;DHT22;5013;51.840;8.276;2022-10-16T00:17:40;13.60;98.80
9949;DHT22;5013;51.840;8.276;2022-10-16T00:20:06;13.60;99.90
9949;DHT22;5013;51.840;8.276;2022-10-16T00:22:32;13.60;99.90
9949;DHT22;5013;51.840;8.276;2022-10-16T00:24:58;13.60;99.90
9949;DHT22;5013;51.840;8.276;2022-10-16T00:27:23;13.50;99.90
9949;DHT22;5013;51.840;8.276;2022-10-16T00:29:50;13.50;99.90
9949;DHT22;5013;51.840;8.276;2022-10-16T00:32:17;13.50;99.90
9949;DHT22;5013;51.840;8.276;2022-10-16T00:34:43;13.50;99.90
9949;DHT22;5013;51.840;8.276;2022-10-16T00:37:09;13.40;99.90
9949;DHT22;5013;51.840;8.276;2022-10-16T00:39:34;13.40;99.90
9949;DHT22;5013;51.840;8.276;2022-10-16T00:42:00;13.40;99.90
9949;DHT22;5013;51.840;8.276;2022-10-16T00:44:48;13.40;99.90
9949;DHT22;5013;51.840;8.276;2022-10-16T00:47:30;13.30;99.90
9949;DHT22;5013;51.840;8.276;2022-10-16T00:52:46;13.20;99.90
9949;DHT22;5013;51.840;8.276;2022-10-16T00:55:13;13.20;99.90
9949;DHT22;5013;51.840;8.276;2022-10-16T00:57:40;13.10;99.90
9949;DHT22;5013;51.840;8.276;2022-10-16T01:00:08;13.10;99.90
9949;DHT22;5013;51.840;8.276;2022-10-16T01:02:34;13.00;88.40
9949;DHT22;5013;51.840;8.276;2022-10-16T01:05:01;12.90;99.90
9949;DHT22;5013;51.840;8.276;2022-10-16T01:13:02;12.90;99.90
9949;DHT22;5013;51.840;8.276;2022-10-16T01:15:49;12.90;99.90
9949;DHT22;5013;51.840;8.276;2022-10-16T01:21:05;12.90;99.90
9949;DHT22;5013;51.840;8.276;2022-10-16T01:29:15;12.90;99.90
9949;DHT22;5013;51.840;8.276;2022-10-16T01:31:47;12.90;99.90
9949;DHT22;5013;51.840;8.276;2022-10-16T01:34:16;12.80;99.90
9949;DHT22;5013;51.840;8.276;2022-10-16T01:36:52;12.80;99.90
9949;DHT22;5013;51.840;8.276;2022-10-16T01:39:28;12.80;99.90
9949;DHT22;5013;51.840;8.276;2022-10-16T01:42:00;12.80;99.90
9949;DHT22;5013;51.840;8.276;2022-10-16T01:44:30;12.80;99.90
9949;DHT22;5013;51.840;8.276;2022-10-16T01:46:56;12.80;99.90
9949;DHT22;5013;51.840;8.276;2022-10-16T01:49:26;12.80;99.90
9949;DHT22;5013;51.840;8.276;2022-10-16T01:51:56;12.80;99.90
9949;DHT22;5013;51.840;8.276;2022-10-16T01:54:27;12.80;99.90
9949;DHT22;5013;51.840;8.276;2022-10-16T01:56:53;12.70;99.90
9949;DHT22;5013;51.840;8.276;2022-10-16T01:59:21;12.60;99.90
9949;DHT22;5013;51.840;8.276;2022-10-16T02:01:52;12.60;99.90
9949;DHT22;5013;51.840;8.276;2022-10-16T02:04:36;12.70;99.90
9949;DHT22;5013;51.840;8.276;2022-10-16T02:07:03;12.70;99.90
9949;DHT22;5013;51.840;8.276;2022-10-16T02:09:30;12.70;99.90
9949;DHT22;5013;51.840;8.276;2022-10-16T02:12:00;12.60;99.90
9949;DHT22;5013;51.840;8.276;2022-10-16T02:14:29;12.50;99.90
9949;DHT22;5013;51.840;8.276;2022-10-16T02:16:55;12.60;99.90
9949;DHT22;5013;51.840;8.276;2022-10-16T02:19:20;12.70;99.90
9949;DHT22;5013;51.840;8.276;2022-10-16T02:21:54;12.70;99.90
9949;DHT22;5013;51.840;8.276;2022-10-16T02:30:05;12.90;99.90
9949;DHT22;5013;51.840;8.276;2022-10-16T02:32:34;12.90;99.90
9949;DHT22;5013;51.840;8.276;2022-10-16T02:35:02;13.00;99.90
9949;DHT22;5013;51.840;8.276;2022-10-16T02:37:28;12.90;99.90
9949;DHT22;5013;51.840;8.276;2022-10-16T02:39:56;12.90;99.90
9949;DHT22;5013;51.840;8.276;2022-10-16T02:42:37;12.90;99.90
9949;DHT22;5013;51.840;8.276;2022-10-16T02:45:04;12.90;99.90
9949;DHT22;5013;51.840;8.276;2022-10-16T02:47:30;12.80;99.90
9949;DHT22;5013;51.840;8.276;2022-10-16T02:49:55;12.80;99.90
9949;DHT22;5013;51.840;8.276;2022-10-16T02:52:21;12.80;99.90
9949;DHT22;5013;51.840;8.276;2022-10-16T02:54:47;12.80;99.90
9949;DHT22;5013;51.840;8.276;2022-10-16T02:57:12;12.80;99.90
9949;DHT22;5013;51.840;8.276;2022-10-16T02:59:38;12.80;99.90
9949;DHT22;5013;51.840;8.276;2022-10-16T03:02:04;12.70;99.90
9949;DHT22;5013;51.840;8.276;2022-10-16T03:04:29;12.60;99.90
9949;DHT22;5013;51.840;8.276;2022-10-16T03:06:55;12.60;99.90
9949;DHT22;5013;51.840;8.276;2022-10-16T03:09:21;12.70;99.90
9949;DHT22;5013;51.840;8.276;2022-10-16T03:11:46;12.60;99.90
9949;DHT22;5013;51.840;8.276;2022-10-16T03:17:34;12.70;99.90
9949;DHT22;5013;51.840;8.276;2022-10-16T03:20:00;12.70;99.90
9949;DHT22;5013;51.840;8.276;2022-10-16T03:22:25;12.70;99.90
9949;DHT22;5013;51.840;8.276;2022-10-16T03:24:51;12.70;99.90
9949;DHT22;5013;51.840;8.276;2022-10-16T03:27:16;12.70;99.90
9949;DHT22;5013;51.840;8.276;2022-10-16T03:29:42;12.70;99.90
9949;DHT22;5013;51.840;8.276;2022-10-16T03:32:08;12.70;99.90
9949;DHT22;5013;51.840;8.276;2022-10-16T03:34:33;12.70;99.90
9949;DHT22;5013;51.840;8.276;2022-10-16T03:36:59;12.80;99.90
9949;DHT22;5013;51.840;8.276;2022-10-16T03:39:24;12.70;99.90
9949;DHT22;5013;51.840;8.276;2022-10-16T03:41:50;12.70;99.90
9949;DHT22;5013;51.840;8.276;2022-10-16T03:44:16;12.70;99.90
9949;DHT22;5013;51.840;8.276;2022-10-16T03:46:41;12.70;99.90
9949;DHT22;5013;51.840;8.276;2022-10-16T03:49:07;12.80;99.90
9949;DHT22;5013;51.840;8.276;2022-10-16T03:51:33;12.80;99.90
9949;DHT22;5013;51.840;8.276;2022-10-16T03:53:58;12.90;99.90
9949;DHT22;5013;51.840;8.276;2022-10-16T03:56:24;12.90;99.90
9949;DHT22;5013;51.840;8.276;2022-10-16T03:58:50;12.90;99.90
9949;DHT22;5013;51.840;8.276;2022-10-16T04:01:15;12.90;99.90
9949;DHT22;5013;51.840;8.276;2022-10-16T04:03:41;12.90;99.90
9949;DHT22;5013;51.840;8.276;2022-10-16T04:06:06;13.00;99.90
9949;DHT22;5013;51.840;8.276;2022-10-16T04:08:32;13.10;99.90
9949;DHT22;5013;51.840;8.276;2022-10-16T04:11:00;13.10;99.90
9949;DHT22;5013;51.840;8.276;2022-10-16T04:13:26;13.10;99.90
9949;DHT22;5013;51.840;8.276;2022-10-16T04:15:52;13.20;99.90
9949;DHT22;5013;51.840;8.276;2022-10-16T04:18:17;13.20;99.90
9949;DHT22;5013;51.840;8.276;2022-10-16T04:20:43;13.30;99.90
9949;DHT22;5013;51.840;8.276;2022-10-16T04:23:08;13.20;99.90
9949;DHT22;5013;51.840;8.276;2022-10-16T04:25:34;13.30;99.90
9949;DHT22;5013;51.840;8.276;2022-10-16T04:28:00;13.30;99.90
9949;DHT22;5013;51.840;8.276;2022-10-16T04:30:25;13.30;99.90
9949;DHT22;5013;51.840;8.276;2022-10-16T04:32:51;13.30;99.90
9949;DHT22;5013;51.840;8.276;2022-10-16T04:35:18;13.30;99.90
9949;DHT22;5013;51.840;8.276;2022-10-16T04:37:45;13.40;99.90
9949;DHT22;5013;51.840;8.276;2022-10-16T04:40:11;13.40;99.90
9949;DHT22;5013;51.840;8.276;2022-10-16T04:42:36;13.40;99.90
9949;DHT22;5013;51.840;8.276;2022-10-16T04:45:03;13.30;99.90
9949;DHT22;5013;51.840;8.276;2022-10-16T04:47:29;13.30;99.90
9949;DHT22;5013;51.840;8.276;2022-10-16T04:49:55;13.30;99.90
9949;DHT22;5013;51.840;8.276;2022-10-16T04:52:20;13.30;99.90
9949;DHT22;5013;51.840;8.276;2022-10-16T04:54:46;13.30;99.90
9949;DHT22;5013;51.840;8.276;2022-10-16T04:57:12;13.20;99.90
9949;DHT22;5013;51.840;8.276;2022-10-16T04:59:38;13.20;99.90
9949;DHT22;5013;51.840;8.276;2022-10-16T05:02:04;13.20;99.90
9949;DHT22;5013;51.840;8.276;2022-10-16T05:04:29;13.10;99.90
9949;DHT22;5013;51.840;8.276;2022-10-16T05:06:55;13.00;99.90
9949;DHT22;5013;51.840;8.276;2022-10-16T05:09:21;13.00;99.90
9949;DHT22;5013;51.840;8.276;2022-10-16T05:11:47;12.90;99.90
9949;DHT22;5013;51.840;8.276;2022-10-16T05:14:12;12.80;99.90
9949;DHT22;5013;51.840;8.276;2022-10-16T05:16:38;12.80;99.90
9949;DHT22;5013;51.840;8.276;2022-10-16T05:19:04;12.80;99.90
9949;DHT22;5013;51.840;8.276;2022-10-16T05:24:51;12.70;99.90
9949;DHT22;5013;51.840;8.276;2022-10-16T05:27:17;12.60;99.90
9949;DHT22;5013;51.840;8.276;2022-10-16T05:29:47;12.60;99.90
9949;DHT22;5013;51.840;8.276;2022-10-16T05:32:17;12.60;99.90
9949;DHT22;5013;51.840;8.276;2022-10-16T05:34:44;12.60;99.90
9949;DHT22;5013;51.840;8.276;2022-10-16T05:37:10;12.50;99.90
9949;DHT22;5013;51.840;8.276;2022-10-16T05:39:37;12.50;99.90
9949;DHT22;5013;51.840;8.276;2022-10-16T05:42:03;12.60;99.90
9949;DHT22;5013;51.840;8.276;2022-10-16T05:44:29;12.50;99.90
9949;DHT22;5013;51.840;8.276;2022-10-16T05:46:55;12.50;99.90
9949;DHT22;5013;51.840;8.276;2022-10-16T05:52:42;12.40;99.90
9949;DHT22;5013;51.840;8.276;2022-10-16T05:55:08;12.30;99.90
9949;DHT22;5013;51.840;8.276;2022-10-16T05:57:34;12.40;99.90
9949;DHT22;5013;51.840;8.276;2022-10-16T05:59:59;12.40;99.90
9949;DHT22;5013;51.840;8.276;2022-10-16T06:02:25;12.40;99.90
9949;DHT22;5013;51.840;8.276;2022-10-16T06:04:54;12.40;99.90
9949;DHT22;5013;51.840;8.276;2022-10-16T06:07:20;12.50;99.90
9949;DHT22;5013;51.840;8.276;2022-10-16T06:09:48;12.50;99.90
9949;DHT22;5013;51.840;8.276;2022-10-16T06:12:15;12.50;99.90
9949;DHT22;5013;51.840;8.276;2022-10-16T06:14:41;12.50;99.90
9949;DHT22;5013;51.840;8.276;2022-10-16T06:20:28;12.70;99.90
9949;DHT22;5013;51.840;8.276;2022-10-16T06:26:21;12.80;99.90
9949;DHT22;5013;51.840;8.276;2022-10-16T06:28:47;12.90;99.90
9949;DHT22;5013;51.840;8.276;2022-10-16T06:31:13;12.90;99.90
9949;DHT22;5013;51.840;8.276;2022-10-16T06:37:02;13.00;99.90
9949;DHT22;5013;51.840;8.276;2022-10-16T06:39:28;13.10;99.90
9949;DHT22;5013;51.840;8.276;2022-10-16T06:41:54;13.20;99.90
9949;DHT22;5013;51.840;8.276;2022-10-16T06:47:41;13.30;99.90
9949;DHT22;5013;51.840;8.276;2022-10-16T06:50:07;13.40;99.90
9949;DHT22;5013;51.840;8.276;2022-10-16T06:52:33;13.50;99.90
9949;DHT22;5013;51.840;8.276;2022-10-16T06:54:59;13.50;99.90
9949;DHT22;5013;51.840;8.276;2022-10-16T06:57:25;13.60;99.90
9949;DHT22;5013;51.840;8.276;2022-10-16T06:59:51;13.60;99.90
9949;DHT22;5013;51.840;8.276;2022-10-16T07:02:16;13.70;99.90
9949;DHT22;5013;51.840;8.276;2022-10-16T07:04:42;13.80;99.90
9949;DHT22;5013;51.840;8.276;2022-10-16T07:07:07;13.90;99.90
9949;DHT22;5013;51.840;8.276;2022-10-16T07:09:33;13.90;99.90
9949;DHT22;5013;51.840;8.276;2022-10-16T07:11:59;14.00;99.90
9949;DHT22;5013;51.840;8.276;2022-10-16T07:14:24;14.00;99.90
9949;DHT22;5013;51.840;8.276;2022-10-16T07:16:50;14.00;99.90
9949;DHT22;5013;51.840;8.276;2022-10-16T07:19:16;14.10;99.90
9949;DHT22;5013;51.840;8.276;2022-10-16T07:21:43;14.20;99.90
9949;DHT22;5013;51.840;8.276;2022-10-16T07:24:14;14.20;99.90
9949;DHT22;5013;51.840;8.276;2022-10-16T07:26:41;14.30;99.90
9949;DHT22;5013;51.840;8.276;2022-10-16T07:32:29;14.60;99.90
9949;DHT22;5013;51.840;8.276;2022-10-16T07:34:56;14.70;99.90
9949;DHT22;5013;51.840;8.276;2022-10-16T07:37:21;14.80;99.90
9949;DHT22;5013;51.840;8.276;2022-10-16T07:39:47;14.90;86.30
9949;DHT22;5013;51.840;8.276;2022-10-16T07:42:13;14.90;30.00
9949;DHT22;5013;51.840;8.276;2022-10-16T07:44:38;15.00;36.10
9949;DHT22;5013;51.840;8.276;2022-10-16T07:47:05;15.00;22.30
9949;DHT22;5013;51.840;8.276;2022-10-16T07:49:31;15.00;12.80
9949;DHT22;5013;51.840;8.276;2022-10-16T07:51:56;15.00;1.00
9949;DHT22;5013;51.840;8.276;2022-10-16T07:57:44;14.90;1.00
9949;DHT22;5013;51.840;8.276;2022-10-16T08:00:10;14.80;2.10
9949;DHT22;5013;51.840;8.276;2022-10-16T08:02:42;14.70;1.00
9949;DHT22;5013;51.840;8.276;2022-10-16T08:05:08;14.70;15.20
9949;DHT22;5013;51.840;8.276;2022-10-16T08:07:33;14.70;23.60
9949;DHT22;5013;51.840;8.276;2022-10-16T08:09:59;14.70;93.50
9949;DHT22;5013;51.840;8.276;2022-10-16T08:12:25;14.80;36.90
9949;DHT22;5013;51.840;8.276;2022-10-16T08:14:51;15.00;35.70
9949;DHT22;5013;51.840;8.276;2022-10-16T08:17:17;15.10;1.00
9949;DHT22;5013;51.840;8.276;2022-10-16T08:19:46;15.20;1.00
9949;DHT22;5013;51.840;8.276;2022-10-16T08:22:15;15.30;1.00
9949;DHT22;5013;51.840;8.276;2022-10-16T08:28:04;15.60;1.00
9949;DHT22;5013;51.840;8.276;2022-10-16T08:30:32;15.80;1.00
9949;DHT22;5013;51.840;8.276;2022-10-16T08:32:57;15.80;1.00
9949;DHT22;5013;51.840;8.276;2022-10-16T08:35:23;16.00;1.00
9949;DHT22;5013;51.840;8.276;2022-10-16T08:37:49;16.10;1.00
9949;DHT22;5013;51.840;8.276;2022-10-16T08:40:25;16.20;99.90
9949;DHT22;5013;51.840;8.276;2022-10-16T08:48:57;16.30;1.00
9949;DHT22;5013;51.840;8.276;2022-10-16T08:51:28;16.40;1.00
9949;DHT22;5013;51.840;8.276;2022-10-16T08:57:11;16.70;99.90
9949;DHT22;5013;51.840;8.276;2022-10-16T08:59:43;16.80;1.00
9949;DHT22;5013;51.840;8.276;2022-10-16T09:02:39;16.90;99.90
9949;DHT22;5013;51.840;8.276;2022-10-16T09:10:59;17.10;1.00
9949;DHT22;5013;51.840;8.276;2022-10-16T09:13:46;17.10;1.00
9949;DHT22;5013;51.840;8.276;2022-10-16T09:19:16;17.30;1.00
9949;DHT22;5013;51.840;8.276;2022-10-16T09:21:53;17.40;99.90
9949;DHT22;5013;51.840;8.276;2022-10-16T09:24:25;17.50;1.00
9949;DHT22;5013;51.840;8.276;2022-10-16T09:26:51;17.60;99.90
9949;DHT22;5013;51.840;8.276;2022-10-16T09:29:23;17.70;1.00
9949;DHT22;5013;51.840;8.276;2022-10-16T09:35:18;17.90;99.90
9949;DHT22;5013;51.840;8.276;2022-10-16T09:37:48;18.00;35.60
9949;DHT22;5013;51.840;8.276;2022-10-16T09:40:32;18.10;1.00
9949;DHT22;5013;51.840;8.276;2022-10-16T09:46:30;18.20;99.90
9949;DHT22;5013;51.840;8.276;2022-10-16T09:52:21;18.20;32.60
9949;DHT22;5013;51.840;8.276;2022-10-16T09:55:00;18.40;99.90
9949;DHT22;5013;51.840;8.276;2022-10-16T09:57:27;18.50;1.00
9949;DHT22;5013;51.840;8.276;2022-10-16T10:03:11;18.60;1.00
9949;DHT22;5013;51.840;8.276;2022-10-16T10:05:39;18.70;1.00
9949;DHT22;5013;51.840;8.276;2022-10-16T10:12:03;18.90;99.90
9949;DHT22;5013;51.840;8.276;2022-10-16T10:14:38;18.90;1.00
9949;DHT22;5013;51.840;8.276;2022-10-16T10:20:28;19.10;47.20
9949;DHT22;5013;51.840;8.276;2022-10-16T10:26:18;19.20;1.00
9949;DHT22;5013;51.840;8.276;2022-10-16T10:40:51;19.20;1.00
9949;DHT22;5013;51.840;8.276;2022-10-16T10:43:29;19.30;1.00
9949;DHT22;5013;51.840;8.276;2022-10-16T10:46:04;19.20;1.00
9949;DHT22;5013;51.840;8.276;2022-10-16T10:55:16;19.30;1.00
9949;DHT22;5013;51.840;8.276;2022-10-16T11:03:27;19.40;1.00
9949;DHT22;5013;51.840;8.276;2022-10-16T11:06:05;19.40;1.00
9949;DHT22;5013;51.840;8.276;2022-10-16T11:08:40;19.50;99.90
9949;DHT22;5013;51.840;8.276;2022-10-16T11:11:08;19.60;99.90
9949;DHT22;5013;51.840;8.276;2022-10-16T11:13:45;19.60;99.90
9949;DHT22;5013;51.840;8.276;2022-10-16T11:19:08;19.70;99.90
9949;DHT22;5013;51.840;8.276;2022-10-16T11:21:44;19.70;99.90
9949;DHT22;5013;51.840;8.276;2022-10-16T11:24:34;19.90;99.90
9949;DHT22;5013;51.840;8.276;2022-10-16T11:27:04;20.00;99.90
9949;DHT22;5013;51.840;8.276;2022-10-16T11:29:35;19.90;99.90
9949;DHT22;5013;51.840;8.276;2022-10-16T11:32:23;19.80;99.90
9949;DHT22;5013;51.840;8.276;2022-10-16T11:34:57;19.90;99.90
9949;DHT22;5013;51.840;8.276;2022-10-16T11:37:29;19.90;99.90
9949;DHT22;5013;51.840;8.276;2022-10-16T11:40:02;20.00;99.90
9949;DHT22;5013;51.840;8.276;2022-10-16T11:42:39;20.10;99.90
9949;DHT22;5013;51.840;8.276;2022-10-16T11:45:18;20.20;99.90
9949;DHT22;5013;51.840;8.276;2022-10-16T11:47:57;20.20;99.90
9949;DHT22;5013;51.840;8.276;2022-10-16T11:50:43;20.00;99.90
9949;DHT22;5013;51.840;8.276;2022-10-16T11:55:44;19.80;99.90
9949;DHT22;5013;51.840;8.276;2022-10-16T11:58:19;20.10;99.90
9949;DHT22;5013;51.840;8.276;2022-10-16T12:00:58;20.10;35.00
9949;DHT22;5013;51.840;8.276;2022-10-16T12:06:31;20.60;38.10
9949;DHT22;5013;51.840;8.276;2022-10-16T12:09:00;20.70;99.90
9949;DHT22;5013;51.840;8.276;2022-10-16T12:17:43;20.90;1.00
9949;DHT22;5013;51.840;8.276;2022-10-16T12:23:20;21.00;1.00
9949;DHT22;5013;51.840;8.276;2022-10-16T12:25:54;20.80;1.00
9949;DHT22;5013;51.840;8.276;2022-10-16T12:28:26;20.80;1.00
9949;DHT22;5013;51.840;8.276;2022-10-16T12:31:03;20.60;1.00
9949;DHT22;5013;51.840;8.276;2022-10-16T12:33:40;20.50;1.00
9949;DHT22;5013;51.840;8.276;2022-10-16T12:36:15;20.30;1.00
9949;DHT22;5013;51.840;8.276;2022-10-16T12:38:49;20.30;51.40
9949;DHT22;5013;51.840;8.276;2022-10-16T12:41:45;20.40;99.90
9949;DHT22;5013;51.840;8.276;2022-10-16T12:44:23;20.20;99.90
9949;DHT22;5013;51.840;8.276;2022-10-16T12:46:49;20.30;99.90
9949;DHT22;5013;51.840;8.276;2022-10-16T12:49:30;20.30;99.90
9949;DHT22;5013;51.840;8.276;2022-10-16T12:51:57;20.40;82.40
9949;DHT22;5013;51.840;8.276;2022-10-16T12:54:28;20.40;99.90
9949;DHT22;5013;51.840;8.276;2022-10-16T13:18:26;20.30;99.90
9949;DHT22;5013;51.840;8.276;2022-10-16T13:21:06;20.30;58.10
9949;DHT22;5013;51.840;8.276;2022-10-16T13:26:49;20.40;59.50
9949;DHT22;5013;51.840;8.276;2022-10-16T13:29:18;20.40;31.70
9949;DHT22;5013;51.840;8.276;2022-10-16T13:31:45;20.40;97.10
9949;DHT22;5013;51.840;8.276;2022-10-16T13:34:17;20.40;23.70
9949;DHT22;5013;51.840;8.276;2022-10-16T13:42:02;20.10;99.90
9949;DHT22;5013;51.840;8.276;2022-10-16T13:44:35;20.10;99.90
9949;DHT22;5013;51.840;8.276;2022-10-16T13:47:02;20.20;99.90
9949;DHT22;5013;51.840;8.276;2022-10-16T13:49:28;20.30;99.90
9949;DHT22;5013;51.840;8.276;2022-10-16T13:51:55;20.20;74.20
9949;DHT22;5013;51.840;8.276;2022-10-16T13:54:21;20.20;99.90
9949;DHT22;5013;51.840;8.276;2022-10-16T13:56:47;20.10;99.90
9949;DHT22;5013;51.840;8.276;2022-10-16T13:59:33;20.10;99.90
9949;DHT22;5013;51.840;8.276;2022-10-16T14:02:00;20.10;99.90
9949;DHT22;5013;51.840;8.276;2022-10-16T14:04:32;20.10;98.00
9949;DHT22;5013;51.840;8.276;2022-10-16T14:06:58;20.20;99.90
9949;DHT22;5013;51.840;8.276;2022-10-16T14:09:25;20.30;99.90
9949;DHT22;5013;51.840;8.276;2022-10-16T14:14:25;20.40;99.90
9949;DHT22;5013;51.840;8.276;2022-10-16T14:16:52;20.40;99.90
9949;DHT22;5013;51.840;8.276;2022-10-16T14:19:22;20.30;99.90
9949;DHT22;5013;51.840;8.276;2022-10-16T14:21:50;20.20;97.60
9949;DHT22;5013;51.840;8.276;2022-10-16T14:24:42;20.20;33.70
9949;DHT22;5013;51.840;8.276;2022-10-16T14:27:34;20.20;65.70
9949;DHT22;5013;51.840;8.276;2022-10-16T14:32:41;20.30;99.90
9949;DHT22;5013;51.840;8.276;2022-10-16T14:37:56;20.30;18.60
9949;DHT22;5013;51.840;8.276;2022-10-16T14:40:25;20.30;40.50
9949;DHT22;5013;51.840;8.276;2022-10-16T14:42:51;20.30;48.80
9949;DHT22;5013;51.840;8.276;2022-10-16T14:45:27;20.40;99.90
9949;DHT22;5013;51.840;8.276;2022-10-16T14:48:02;20.40;45.40
9949;DHT22;5013;51.840;8.276;2022-10-16T14:50:29;20.40;1.00
9949;DHT22;5013;51.840;8.276;2022-10-16T14:52:55;20.30;1.00
9949;DHT22;5013;51.840;8.276;2022-10-16T14:55:21;20.30;99.90
9949;DHT22;5013;51.840;8.276;2022-10-16T14:57:47;20.20;99.90
9949;DHT22;5013;51.840;8.276;2022-10-16T15:00:22;20.00;93.50
9949;DHT22;5013;51.840;8.276;2022-10-16T15:02:49;19.90;52.50
9949;DHT22;5013;51.840;8.276;2022-10-16T15:05:18;19.90;99.90
9949;DHT22;5013;51.840;8.276;2022-10-16T15:07:45;19.90;40.00
9949;DHT22;5013;51.840;8.276;2022-10-16T15:10:12;19.90;99.90
9949;DHT22;5013;51.840;8.276;2022-10-16T15:12:38;19.80;99.90
9949;DHT22;5013;51.840;8.276;2022-10-16T15:17:53;19.70;99.90
9949;DHT22;5013;51.840;8.276;2022-10-16T15:20:21;19.60;99.90
9949;DHT22;5013;51.840;8.276;2022-10-16T15:22:47;19.40;99.90
9949;DHT22;5013;51.840;8.276;2022-10-16T15:25:39;19.10;99.90
9949;DHT22;5013;51.840;8.276;2022-10-16T15:28:08;19.00;1.00
9949;DHT22;5013;51.840;8.276;2022-10-16T15:30:34;18.90;1.00
9949;DHT22;5013;51.840;8.276;2022-10-16T15:33:01;18.80;1.00
9949;DHT22;5013;51.840;8.276;2022-10-16T15:35:27;18.70;92.30
9949;DHT22;5013;51.840;8.276;2022-10-16T15:37:52;18.60;99.90
9949;DHT22;5013;51.840;8.276;2022-10-16T15:40:19;18.50;99.90
9949;DHT22;5013;51.840;8.276;2022-10-16T15:42:45;18.40;1.00
9949;DHT22;5013;51.840;8.276;2022-10-16T15:45:11;18.40;99.90
9949;DHT22;5013;51.840;8.276;2022-10-16T15:47:37;18.40;99.90
9949;DHT22;5013;51.840;8.276;2022-10-16T15:50:04;18.40;1.00
9949;DHT22;5013;51.840;8.276;2022-10-16T15:52:30;18.20;99.90
9949;DHT22;5013;51.840;8.276;2022-10-16T15:54:58;18.20;7.90
9949;DHT22;5013;51.840;8.276;2022-10-16T15:57:24;18.20;1.00
9949;DHT22;5013;51.840;8.276;2022-10-16T15:59:50;18.10;99.90
9949;DHT22;5013;51.840;8.276;2022-10-16T16:02:15;18.10;70.00
9949;DHT22;5013;51.840;8.276;2022-10-16T16:04:41;18.20;99.90
9949;DHT22;5013;51.840;8.276;2022-10-16T16:07:07;18.00;1.00
9949;DHT22;5013;51.840;8.276;2022-10-16T16:09:33;17.90;1.00
9949;DHT22;5013;51.840;8.276;2022-10-16T16:11:58;17.80;1.00
9949;DHT22;5013;51.840;8.276;2022-10-16T16:14:26;17.80;1.00
9949;DHT22;5013;51.840;8.276;2022-10-16T16:16:57;17.80;1.00
9949;DHT22;5013;51.840;8.276;2022-10-16T16:19:22;17.70;1.00
9949;DHT22;5013;51.840;8.276;2022-10-16T16:21:49;17.80;1.00
9949;DHT22;5013;51.840;8.276;2022-10-16T16:24:14;17.70;1.00
9949;DHT22;5013;51.840;8.276;2022-10-16T16:26:40;17.70;1.00
9949;DHT22;5013;51.840;8.276;2022-10-16T16:29:11;17.80;1.00
9949;DHT22;5013;51.840;8.276;2022-10-16T16:31:39;17.70;1.00
9949;DHT22;5013;51.840;8.276;2022-10-16T16:34:05;17.70;21.40
9949;DHT22;5013;51.840;8.276;2022-10-16T16:36:31;17.60;99.90
9949;DHT22;5013;51.840;8.276;2022-10-16T16:38:57;17.40;99.90
9949;DHT22;5013;51.840;8.276;2022-10-16T16:41:26;17.40;1.00
9949;DHT22;5013;51.840;8.276;2022-10-16T16:43:52;17.40;1.00
9949;DHT22;5013;51.840;8.276;2022-10-16T16:46:18;17.40;1.00
9949;DHT22;5013;51.840;8.276;2022-10-16T16:48:45;17.40;99.90
9949;DHT22;5013;51.840;8.276;2022-10-16T16:54:33;17.30;1.00
9949;DHT22;5013;51.840;8.276;2022-10-16T16:56:58;17.20;1.00
9949;DHT22;5013;51.840;8.276;2022-10-16T16:59:24;17.20;1.00
9949;DHT22;5013;51.840;8.276;2022-10-16T17:01:50;17.10;1.00
9949;DHT22;5013;51.840;8.276;2022-10-16T17:04:16;17.00;1.00
9949;DHT22;5013;51.840;8.276;2022-10-16T17:06:42;17.00;99.90
9949;DHT22;5013;51.840;8.276;2022-10-16T17:09:09;16.90;78.90
9949;DHT22;5013;51.840;8.276;2022-10-16T17:11:35;17.00;1.00
9949;DHT22;5013;51.840;8.276;2022-10-16T17:14:01;17.10;99.90
9949;DHT22;5013;51.840;8.276;2022-10-16T17:16:30;17.10;99.90
9949;DHT22;5013;51.840;8.276;2022-10-16T17:18:59;17.10;1.00
9949;DHT22;5013;51.840;8.276;2022-10-16T17:21:25;17.00;1.00
9949;DHT22;5013;51.840;8.276;2022-10-16T17:23:52;17.00;1.00
9949;DHT22;5013;51.840;8.276;2022-10-16T17:26:18;17.00;1.00
9949;DHT22;5013;51.840;8.276;2022-10-16T17:28:43;16.90;1.00
9949;DHT22;5013;51.840;8.276;2022-10-16T17:31:13;16.80;99.90
9949;DHT22;5013;51.840;8.276;2022-10-16T17:33:40;16.80;99.90
9949;DHT22;5013;51.840;8.276;2022-10-16T17:36:06;16.80;1.00
9949;DHT22;5013;51.840;8.276;2022-10-16T17:38:33;16.70;99.90
9949;DHT22;5013;51.840;8.276;2022-10-16T17:41:08;16.70;1.00
9949;DHT22;5013;51.840;8.276;2022-10-16T17:43:34;16.80;1.00
9949;DHT22;5013;51.840;8.276;2022-10-16T17:49:22;16.80;99.90
9949;DHT22;5013;51.840;8.276;2022-10-16T17:55:10;16.80;1.00
9949;DHT22;5013;51.840;8.276;2022-10-16T17:57:36;16.70;1.00
9949;DHT22;5013;51.840;8.276;2022-10-16T18:00:04;16.70;1.00
9949;DHT22;5013;51.840;8.276;2022-10-16T18:02:31;16.70;92.00
9949;DHT22;5013;51.840;8.276;2022-10-16T18:04:57;16.70;99.90
9949;DHT22;5013;51.840;8.276;2022-10-16T18:10:48;16.70;99.90
9949;DHT22;5013;51.840;8.276;2022-10-16T18:13:16;16.60;99.90
9949;DHT22;5013;51.840;8.276;2022-10-16T18:16:09;16.50;1.00
9949;DHT22;5013;51.840;8.276;2022-10-16T18:18:39;16.50;1.00
9949;DHT22;5013;51.840;8.276;2022-10-16T18:21:07;16.40;93.10
9949;DHT22;5013;51.840;8.276;2022-10-16T18:23:34;16.40;99.90
9949;DHT22;5013;51.840;8.276;2022-10-16T18:26:01;16.50;99.90
9949;DHT22;5013;51.840;8.276;2022-10-16T18:28:26;16.40;99.90
9949;DHT22;5013;51.840;8.276;2022-10-16T18:30:56;16.30;1.00
9949;DHT22;5013;51.840;8.276;2022-10-16T18:36:44;16.30;1.00
9949;DHT22;5013;51.840;8.276;2022-10-16T18:39:11;16.30;1.00
9949;DHT22;5013;51.840;8.276;2022-10-16T18:41:39;16.30;99.90
9949;DHT22;5013;51.840;8.276;2022-10-16T18:44:06;16.20;99.90
9949;DHT22;5013;51.840;8.276;2022-10-16T18:46:32;16.20;99.90
9949;DHT22;5013;51.840;8.276;2022-10-16T18:48:58;16.10;99.90
9949;DHT22;5013;51.840;8.276;2022-10-16T18:51:32;16.10;1.00
9949;DHT22;5013;51.840;8.276;2022-10-16T18:54:00;16.10;1.00
9949;DHT22;5013;51.840;8.276;2022-10-16T18:59:48;16.10;92.90
9949;DHT22;5013;51.840;8.276;2022-10-16T19:02:14;15.90;99.90
9949;DHT22;5013;51.840;8.276;2022-10-16T19:04:40;16.00;99.90
9949;DHT22;5013;51.840;8.276;2022-10-16T19:07:06;16.10;1.00
9949;DHT22;5013;51.840;8.276;2022-10-16T19:12:54;16.20;99.90
9949;DHT22;5013;51.840;8.276;2022-10-16T19:15:19;16.20;99.90
9949;DHT22;5013;51.840;8.276;2022-10-16T19:17:46;16.20;84.60
9949;DHT22;5013;51.840;8.276;2022-10-16T19:20:12;16.20;1.00
9949;DHT22;5013;51.840;8.276;2022-10-16T19:22:37;16.10;1.00
9949;DHT22;5013;51.840;8.276;2022-10-16T19:25:18;16.20;1.00
9949;DHT22;5013;51.840;8.276;2022-10-16T19:27:47;16.20;99.90
9949;DHT22;5013;51.840;8.276;2022-10-16T19:30:13;16.20;99.90
9949;DHT22;5013;51.840;8.276;2022-10-16T19:32:38;16.10;1.00
9949;DHT22;5013;51.840;8.276;2022-10-16T19:35:04;16.10;99.90
9949;DHT22;5013;51.840;8.276;2022-10-16T19:37:30;16.20;99.90